sensor_id;sensor_type;location;lat;lon;timestamp;pressure;altitude;pressure_sealevel;temperature;humidity
69318;BME280;56457;52.190;4.440;2023-08-07T00:00:01;101499.97;;;15.85;100.00
69318;BME280;56457;52.190;4.440;2023-08-07T00:01:02;101508.81;;;15.84;100.00
69318;BME280;56457;52.190;4.440;2023-08-07T00:02:03;101500.84;;;15.86;100.00
69318;BME280;56457;52.190;4.440;2023-08-07T00:03:04;101505.31;;;15.82;100.00
69318;BME280;56457;52.190;4.440;2023-08-07T00:04:04;101496.44;;;15.86;100.00
69318;BME280;56457;52.190;4.440;2023-08-07T00:05:05;101500.84;;;15.86;100.00
69318;BME280;56457;52.190;4.440;2023-08-07T00:06:05;101503.41;;;15.89;100.00
69318;BME280;56457;52.190;4.440;2023-08-07T00:07:06;101505.31;;;15.82;100.00
69318;BME280;56457;52.190;4.440;2023-08-07T00:08:06;101508.16;;;15.73;100.00
69318;BME280;56457;52.190;4.440;2023-08-07T00:09:08;101515.22;;;15.71;100.00
69318;BME280;56457;52.190;4.440;2023-08-07T00:10:08;101492.47;;;15.63;100.00
69318;BME280;56457;52.190;4.440;2023-08-07T00:11:09;101510.94;;;15.64;100.00
69318;BME280;56457;52.190;4.440;2023-08-07T00:12:10;101510.03;;;15.67;100.00
69318;BME280;56457;52.190;4.440;2023-08-07T00:13:10;101501.03;;;15.75;100.00
69318;BME280;56457;52.190;4.440;2023-08-07T00:14:10;101503.66;;;15.78;100.00
69318;BME280;56457;52.190;4.440;2023-08-07T00:15:10;101508.97;;;15.75;100.00
69318;BME280;56457;52.190;4.440;2023-08-07T00:16:11;101517.00;;;15.71;100.00
69318;BME280;56457;52.190;4.440;2023-08-07T00:17:12;101508.19;;;15.70;100.00
69318;BME280;56457;52.190;4.440;2023-08-07T00:18:12;101507.19;;;15.76;100.00
69318;BME280;56457;52.190;4.440;2023-08-07T00:19:12;101522.97;;;15.82;100.00
69318;BME280;56457;52.190;4.440;2023-08-07T00:20:13;101514.22;;;15.77;100.00
69318;BME280;56457;52.190;4.440;2023-08-07T00:21:13;101522.28;;;15.71;100.00
69318;BME280;56457;52.190;4.440;2023-08-07T00:22:13;101526.88;;;15.58;100.00
69318;BME280;56457;52.190;4.440;2023-08-07T00:23:14;101527.13;;;15.44;100.00
69318;BME280;56457;52.190;4.440;2023-08-07T00:24:14;101528.16;;;15.34;100.00
69318;BME280;56457;52.190;4.440;2023-08-07T00:25:14;101525.75;;;15.22;100.00
69318;BME280;56457;52.190;4.440;2023-08-07T00:26:15;101524.84;;;15.23;100.00
69318;BME280;56457;52.190;4.440;2023-08-07T00:27:15;101526.63;;;15.21;100.00
69318;BME280;56457;52.190;4.440;2023-08-07T00:28:15;101519.56;;;15.21;100.00
69318;BME280;56457;52.190;4.440;2023-08-07T00:29:15;101516.94;;;15.21;100.00
69318;BME280;56457;52.190;4.440;2023-08-07T00:30:16;101516.88;;;15.26;100.00
69318;BME280;56457;52.190;4.440;2023-08-07T00:31:16;101522.13;;;15.29;100.00
69318;BME280;56457;52.190;4.440;2023-08-07T00:32:16;101526.31;;;15.39;100.00
69318;BME280;56457;52.190;4.440;2023-08-07T00:33:17;101536.78;;;15.48;100.00
69318;BME280;56457;52.190;4.440;2023-08-07T00:34:17;101531.50;;;15.47;100.00
69318;BME280;56457;52.190;4.440;2023-08-07T00:35:17;101537.88;;;15.35;100.00
69318;BME280;56457;52.190;4.440;2023-08-07T00:36:18;101539.69;;;15.31;100.00
69318;BME280;56457;52.190;4.440;2023-08-07T00:37:18;101534.47;;;15.28;100.00
69318;BME280;56457;52.190;4.440;2023-08-07T00:38:18;101533.66;;;15.23;100.00
69318;BME280;56457;52.190;4.440;2023-08-07T00:39:18;101534.69;;;15.13;100.00
69318;BME280;56457;52.190;4.440;2023-08-07T00:40:19;101532.91;;;15.14;100.00
69318;BME280;56457;52.190;4.440;2023-08-07T00:41:19;101526.75;;;15.13;100.00
69318;BME280;56457;52.190;4.440;2023-08-07T00:42:20;101536.44;;;15.14;100.00
69318;BME280;56457;52.190;4.440;2023-08-07T00:43:20;101528.41;;;15.20;100.00
69318;BME280;56457;52.190;4.440;2023-08-07T00:44:20;101533.66;;;15.23;100.00
69318;BME280;56457;52.190;4.440;2023-08-07T00:45:21;101528.13;;;15.37;100.00
69318;BME280;56457;52.190;4.440;2023-08-07T00:46:21;101526.41;;;15.36;100.00
69318;BME280;56457;52.190;4.440;2023-08-07T00:47:21;101531.63;;;15.39;100.00
69318;BME280;56457;52.190;4.440;2023-08-07T00:48:22;101537.75;;;15.43;100.00
69318;BME280;56457;52.190;4.440;2023-08-07T00:49:22;101533.41;;;15.37;100.00
69318;BME280;56457;52.190;4.440;2023-08-07T00:50:22;101538.75;;;15.34;100.00
69318;BME280;56457;52.190;4.440;2023-08-07T00:51:23;101533.25;;;15.46;100.00
69318;BME280;56457;52.190;4.440;2023-08-07T00:52:24;101537.66;;;15.46;100.00
69318;BME280;56457;52.190;4.440;2023-08-07T00:53:24;101535.91;;;15.46;100.00
69318;BME280;56457;52.190;4.440;2023-08-07T00:54:24;101530.59;;;15.48;100.00
69318;BME280;56457;52.190;4.440;2023-08-07T00:55:25;101540.25;;;15.50;100.00
69318;BME280;56457;52.190;4.440;2023-08-07T00:56:25;101532.22;;;15.56;100.00
69318;BME280;56457;52.190;4.440;2023-08-07T00:57:26;101523.50;;;15.50;100.00
69318;BME280;56457;52.190;4.440;2023-08-07T00:58:27;101533.16;;;15.52;100.00
69318;BME280;56457;52.190;4.440;2023-08-07T00:59:27;101518.91;;;15.61;100.00
69318;BME280;56457;52.190;4.440;2023-08-07T01:00:30;101513.59;;;15.66;100.00
69318;BME280;56457;52.190;4.440;2023-08-07T01:01:31;101517.81;;;15.74;100.00
69318;BME280;56457;52.190;4.440;2023-08-07T01:02:31;101517.84;;;15.73;100.00
69318;BME280;56457;52.190;4.440;2023-08-07T01:03:31;101528.41;;;15.74;100.00
69318;BME280;56457;52.190;4.440;2023-08-07T01:04:32;101523.03;;;15.77;100.00
69318;BME280;56457;52.190;4.440;2023-08-07T01:05:32;101530.09;;;15.77;100.00
69318;BME280;56457;52.190;4.440;2023-08-07T01:06:32;101528.31;;;15.79;100.00
69318;BME280;56457;52.190;4.440;2023-08-07T01:07:33;101512.56;;;15.73;100.00
69318;BME280;56457;52.190;4.440;2023-08-07T01:08:33;101531.88;;;15.78;100.00
69318;BME280;56457;52.190;4.440;2023-08-07T01:09:33;101530.09;;;15.77;100.00
69318;BME280;56457;52.190;4.440;2023-08-07T01:11:56;101534.66;;;15.69;100.00
69318;BME280;56457;52.190;4.440;2023-08-07T01:13:00;101527.69;;;15.66;100.00
69318;BME280;56457;52.190;4.440;2023-08-07T01:14:04;101521.66;;;15.55;100.00
69318;BME280;56457;52.190;4.440;2023-08-07T01:15:16;101533.16;;;15.54;100.00
69318;BME280;56457;52.190;4.440;2023-08-07T01:16:26;101536.59;;;15.59;100.00
69318;BME280;56457;52.190;4.440;2023-08-07T01:17:28;101542.72;;;15.63;100.00
69318;BME280;56457;52.190;4.440;2023-08-07T01:18:29;101532.13;;;15.63;100.00
69318;BME280;56457;52.190;4.440;2023-08-07T01:19:30;101533.72;;;15.71;100.00
69318;BME280;56457;52.190;4.440;2023-08-07T01:20:31;101536.38;;;15.71;100.00
69318;BME280;56457;52.190;4.440;2023-08-07T01:21:32;101525.09;;;15.60;100.00
69318;BME280;56457;52.190;4.440;2023-08-07T01:22:32;101545.53;;;15.50;100.00
69318;BME280;56457;52.190;4.440;2023-08-07T01:23:32;101547.19;;;15.57;100.00
69318;BME280;56457;52.190;4.440;2023-08-07T01:24:33;101539.38;;;15.50;100.00
69318;BME280;56457;52.190;4.440;2023-08-07T01:25:34;101535.06;;;15.44;100.00
69318;BME280;56457;52.190;4.440;2023-08-07T01:26:38;101535.13;;;15.40;100.00
69318;BME280;56457;52.190;4.440;2023-08-07T01:28:02;101552.81;;;15.38;100.00
69318;BME280;56457;52.190;4.440;2023-08-07T01:29:04;101547.47;;;15.41;100.00
69318;BME280;56457;52.190;4.440;2023-08-07T01:31:10;101546.72;;;15.32;100.00
69318;BME280;56457;52.190;4.440;2023-08-07T01:32:13;101538.69;;;15.39;100.00
69318;BME280;56457;52.190;4.440;2023-08-07T01:33:27;101539.56;;;15.39;100.00
69318;BME280;56457;52.190;4.440;2023-08-07T01:34:32;101535.06;;;15.44;100.00
69318;BME280;56457;52.190;4.440;2023-08-07T01:35:34;101542.97;;;15.46;100.00
69318;BME280;56457;52.190;4.440;2023-08-07T01:36:36;101534.81;;;15.58;100.00
69318;BME280;56457;52.190;4.440;2023-08-07T01:37:39;101532.06;;;15.67;100.00
69318;BME280;56457;52.190;4.440;2023-08-07T01:38:40;101529.34;;;15.72;100.00
69318;BME280;56457;52.190;4.440;2023-08-07T01:39:41;101530.22;;;15.72;100.00
69318;BME280;56457;52.190;4.440;2023-08-07T01:40:42;101525.78;;;15.73;100.00
69318;BME280;56457;52.190;4.440;2023-08-07T01:41:43;101526.59;;;15.76;100.00
69318;BME280;56457;52.190;4.440;2023-08-07T01:42:43;101530.09;;;15.78;100.00
69318;BME280;56457;52.190;4.440;2023-08-07T01:43:44;101531.00;;;15.76;100.00
69318;BME280;56457;52.190;4.440;2023-08-07T01:44:45;101541.47;;;15.82;100.00
69318;BME280;56457;52.190;4.440;2023-08-07T01:45:45;101529.16;;;15.81;100.00
69318;BME280;56457;52.190;4.440;2023-08-07T01:46:45;101528.34;;;15.77;100.00
69318;BME280;56457;52.190;4.440;2023-08-07T01:47:45;101526.81;;;15.66;100.00
69318;BME280;56457;52.190;4.440;2023-08-07T01:48:46;101517.13;;;15.61;100.00
69318;BME280;56457;52.190;4.440;2023-08-07T01:49:46;101529.53;;;15.59;100.00
69318;BME280;56457;52.190;4.440;2023-08-07T01:50:47;101524.09;;;15.69;100.00
69318;BME280;56457;52.190;4.440;2023-08-07T01:51:47;101533.72;;;15.71;100.00
69318;BME280;56457;52.190;4.440;2023-08-07T01:52:47;101529.34;;;15.72;100.00
69318;BME280;56457;52.190;4.440;2023-08-07T01:53:47;101528.44;;;15.71;100.00
69318;BME280;56457;52.190;4.440;2023-08-07T01:54:48;101532.78;;;15.75;100.00
69318;BME280;56457;52.190;4.440;2023-08-07T01:55:48;101517.78;;;15.76;100.00
69318;BME280;56457;52.190;4.440;2023-08-07T01:56:48;101532.72;;;15.80;100.00
69318;BME280;56457;52.190;4.440;2023-08-07T01:57:49;101538.91;;;15.79;100.00
69318;BME280;56457;52.190;4.440;2023-08-07T01:58:49;101534.53;;;15.76;100.00
69318;BME280;56457;52.190;4.440;2023-08-07T01:59:49;101532.84;;;15.72;100.00
69318;BME280;56457;52.190;4.440;2023-08-07T02:00:49;101527.47;;;15.77;100.00
69318;BME280;56457;52.190;4.440;2023-08-07T02:01:50;101530.97;;;15.79;100.00
69318;BME280;56457;52.190;4.440;2023-08-07T02:02:50;101539.03;;;15.71;100.00
69318;BME280;56457;52.190;4.440;2023-08-07T02:03:50;101534.56;;;15.75;100.00
69318;BME280;56457;52.190;4.440;2023-08-07T02:04:51;101537.16;;;15.76;100.00
69318;BME280;56457;52.190;4.440;2023-08-07T02:05:51;101538.94;;;15.76;100.00
69318;BME280;56457;52.190;4.440;2023-08-07T02:06:51;101540.75;;;15.74;100.00
69318;BME280;56457;52.190;4.440;2023-08-07T02:07:52;101542.53;;;15.73;100.00
69318;BME280;56457;52.190;4.440;2023-08-07T02:08:52;101532.09;;;15.66;100.00
69318;BME280;56457;52.190;4.440;2023-08-07T02:09:52;101548.75;;;15.69;100.00
69318;BME280;56457;52.190;4.440;2023-08-07T02:10:52;101532.09;;;15.66;100.00
69318;BME280;56457;52.190;4.440;2023-08-07T02:11:53;101536.47;;;15.67;100.00
69318;BME280;56457;52.190;4.440;2023-08-07T02:12:53;101538.03;;;15.77;100.00
69318;BME280;56457;52.190;4.440;2023-08-07T02:13:53;101538.16;;;15.71;100.00
69318;BME280;56457;52.190;4.440;2023-08-07T02:14:54;101537.28;;;15.70;100.00
69318;BME280;56457;52.190;4.440;2023-08-07T02:15:54;101544.34;;;15.70;100.00
69318;BME280;56457;52.190;4.440;2023-08-07T02:16:54;101547.88;;;15.70;100.00
69318;BME280;56457;52.190;4.440;2023-08-07T02:17:54;101551.44;;;15.68;100.00
69318;BME280;56457;52.190;4.440;2023-08-07T02:18:55;101538.34;;;15.58;100.00
69318;BME280;56457;52.190;4.440;2023-08-07T02:19:55;101544.53;;;15.57;100.00
69318;BME280;56457;52.190;4.440;2023-08-07T02:20:56;101544.53;;;15.57;100.00
69318;BME280;56457;52.190;4.440;2023-08-07T02:21:56;101554.16;;;15.61;100.00
69318;BME280;56457;52.190;4.440;2023-08-07T02:22:56;101550.72;;;15.56;100.00
69318;BME280;56457;52.190;4.440;2023-08-07T02:23:57;101556.13;;;15.50;100.00
69318;BME280;56457;52.190;4.440;2023-08-07T02:24:57;101548.31;;;15.43;100.00
69318;BME280;56457;52.190;4.440;2023-08-07T02:25:57;101558.09;;;15.38;100.00
69318;BME280;56457;52.190;4.440;2023-08-07T02:26:58;101579.50;;;15.21;100.00
69318;BME280;56457;52.190;4.440;2023-08-07T02:27:58;101592.00;;;15.08;100.00
69318;BME280;56457;52.190;4.440;2023-08-07T02:28:58;101577.28;;;14.90;100.00
69318;BME280;56457;52.190;4.440;2023-08-07T02:29:58;101581.91;;;14.76;100.00
69318;BME280;56457;52.190;4.440;2023-08-07T02:30:59;101598.81;;;14.63;100.00
69318;BME280;56457;52.190;4.440;2023-08-07T02:32:02;101599.72;;;14.59;100.00
69318;BME280;56457;52.190;4.440;2023-08-07T02:33:03;101584.84;;;14.54;100.00
69318;BME280;56457;52.190;4.440;2023-08-07T02:34:04;101581.31;;;14.54;100.00
69318;BME280;56457;52.190;4.440;2023-08-07T02:35:04;101580.31;;;14.63;100.00
69318;BME280;56457;52.190;4.440;2023-08-07T02:36:04;101588.28;;;14.61;100.00
69318;BME280;56457;52.190;4.440;2023-08-07T02:37:05;101584.75;;;14.59;100.00
69318;BME280;56457;52.190;4.440;2023-08-07T02:38:05;101600.50;;;14.68;100.00
69318;BME280;56457;52.190;4.440;2023-08-07T02:39:06;101599.50;;;14.77;100.00
69318;BME280;56457;52.190;4.440;2023-08-07T02:40:06;101584.50;;;14.80;100.00
69318;BME280;56457;52.190;4.440;2023-08-07T02:41:07;101595.00;;;14.84;100.00
69318;BME280;56457;52.190;4.440;2023-08-07T02:42:07;101583.47;;;14.89;100.00
69318;BME280;56457;52.190;4.440;2023-08-07T02:43:07;101570.19;;;14.95;100.00
69318;BME280;56457;52.190;4.440;2023-08-07T02:44:07;101561.44;;;14.92;100.00
69318;BME280;56457;52.190;4.440;2023-08-07T02:45:08;101573.69;;;14.97;100.00
69318;BME280;56457;52.190;4.440;2023-08-07T02:46:08;101576.34;;;14.97;100.00
69318;BME280;56457;52.190;4.440;2023-08-07T02:47:08;101580.59;;;15.06;100.00
69318;BME280;56457;52.190;4.440;2023-08-07T02:48:09;101578.81;;;15.08;100.00
69318;BME280;56457;52.190;4.440;2023-08-07T02:49:09;101560.22;;;15.16;100.00
69318;BME280;56457;52.190;4.440;2023-08-07T02:50:09;101560.16;;;15.19;100.00
69318;BME280;56457;52.190;4.440;2023-08-07T02:51:10;101558.44;;;15.15;100.00
69318;BME280;56457;52.190;4.440;2023-08-07T02:52:10;101558.34;;;15.22;100.00
69318;BME280;56457;52.190;4.440;2023-08-07T02:53:11;101553.03;;;15.24;100.00
69318;BME280;56457;52.190;4.440;2023-08-07T02:54:11;101546.84;;;15.25;100.00
69318;BME280;56457;52.190;4.440;2023-08-07T02:55:11;101556.50;;;15.26;100.00
69318;BME280;56457;52.190;4.440;2023-08-07T02:56:11;101548.50;;;15.30;100.00
69318;BME280;56457;52.190;4.440;2023-08-07T02:57:12;101552.03;;;15.31;100.00
69318;BME280;56457;52.190;4.440;2023-08-07T02:58:12;101552.09;;;15.26;100.00
69318;BME280;56457;52.190;4.440;2023-08-07T02:59:12;101562.56;;;15.32;100.00
69318;BME280;56457;52.190;4.440;2023-08-07T03:00:13;101557.38;;;15.26;100.00
69318;BME280;56457;52.190;4.440;2023-08-07T03:01:13;101560.81;;;15.34;100.00
69318;BME280;56457;52.190;4.440;2023-08-07T03:02:13;101557.25;;;15.34;100.00
69318;BME280;56457;52.190;4.440;2023-08-07T03:03:13;101566.19;;;15.28;100.00
69318;BME280;56457;52.190;4.440;2023-08-07T03:04:14;101560.84;;;15.31;100.00
69318;BME280;56457;52.190;4.440;2023-08-07T03:05:14;101564.31;;;15.33;100.00
69318;BME280;56457;52.190;4.440;2023-08-07T03:06:14;101558.94;;;15.40;100.00
69318;BME280;56457;52.190;4.440;2023-08-07T03:07:15;101566.91;;;15.38;100.00
69318;BME280;56457;52.190;4.440;2023-08-07T03:08:15;101554.50;;;15.40;100.00
69318;BME280;56457;52.190;4.440;2023-08-07T03:09:15;101558.94;;;15.40;100.00
69318;BME280;56457;52.190;4.440;2023-08-07T03:10:15;101551.94;;;15.37;100.00
69318;BME280;56457;52.190;4.440;2023-08-07T03:11:16;101559.81;;;15.39;100.00
69318;BME280;56457;52.190;4.440;2023-08-07T03:12:16;101550.97;;;15.43;100.00
69318;BME280;56457;52.190;4.440;2023-08-07T03:13:16;101561.50;;;15.44;100.00
69318;BME280;56457;52.190;4.440;2023-08-07T03:14:16;101564.19;;;15.43;100.00
69318;BME280;56457;52.190;4.440;2023-08-07T03:15:17;101549.06;;;15.51;100.00
69318;BME280;56457;52.190;4.440;2023-08-07T03:16:17;101561.44;;;15.49;100.00
69318;BME280;56457;52.190;4.440;2023-08-07T03:17:17;101563.22;;;15.48;100.00
69318;BME280;56457;52.190;4.440;2023-08-07T03:18:18;101569.44;;;15.44;100.00
69318;BME280;56457;52.190;4.440;2023-08-07T03:19:18;101561.50;;;15.44;100.00
69318;BME280;56457;52.190;4.440;2023-08-07T03:20:21;101563.34;;;15.39;100.00
69318;BME280;56457;52.190;4.440;2023-08-07T03:21:21;101566.78;;;15.44;100.00
69318;BME280;56457;52.190;4.440;2023-08-07T03:22:22;101564.00;;;15.53;100.00
69318;BME280;56457;52.190;4.440;2023-08-07T03:23:22;101564.03;;;15.50;100.00
69318;BME280;56457;52.190;4.440;2023-08-07T03:24:23;101547.31;;;15.50;100.00
69318;BME280;56457;52.190;4.440;2023-08-07T03:25:23;101547.34;;;15.48;100.00
69318;BME280;56457;52.190;4.440;2023-08-07T03:26:23;101554.38;;;15.49;100.00
69318;BME280;56457;52.190;4.440;2023-08-07T03:27:24;101550.66;;;15.61;100.00
69318;BME280;56457;52.190;4.440;2023-08-07T03:28:24;101548.97;;;15.55;100.00
69318;BME280;56457;52.190;4.440;2023-08-07T03:29:24;101554.31;;;15.52;100.00
69318;BME280;56457;52.190;4.440;2023-08-07T03:30:24;101560.38;;;15.62;100.00
69318;BME280;56457;52.190;4.440;2023-08-07T03:31:25;101564.72;;;15.65;100.00
69318;BME280;56457;52.190;4.440;2023-08-07T03:32:25;101561.31;;;15.56;100.00
69318;BME280;56457;52.190;4.440;2023-08-07T03:33:25;101570.00;;;15.65;100.00
69318;BME280;56457;52.190;4.440;2023-08-07T03:34:25;101570.09;;;15.57;100.00
69318;BME280;56457;52.190;4.440;2023-08-07T03:35:26;101581.47;;;15.65;100.00
69318;BME280;56457;52.190;4.440;2023-08-07T03:36:26;101561.19;;;15.66;100.00
69318;BME280;56457;52.190;4.440;2023-08-07T03:37:26;101559.34;;;15.69;100.00
69318;BME280;56457;52.190;4.440;2023-08-07T03:38:27;101546.09;;;15.72;100.00
69318;BME280;56457;52.190;4.440;2023-08-07T03:39:27;101550.41;;;15.78;100.00
69318;BME280;56457;52.190;4.440;2023-08-07T03:40:27;101551.34;;;15.74;100.00
69318;BME280;56457;52.190;4.440;2023-08-07T03:41:27;101544.19;;;15.77;100.00
69318;BME280;56457;52.190;4.440;2023-08-07T03:42:28;101557.41;;;15.80;100.00
69318;BME280;56457;52.190;4.440;2023-08-07T03:43:28;101558.28;;;15.79;100.00
69318;BME280;56457;52.190;4.440;2023-08-07T03:44:28;101549.50;;;15.77;100.00
69318;BME280;56457;52.190;4.440;2023-08-07T03:45:29;101547.81;;;15.73;100.00
69318;BME280;56457;52.190;4.440;2023-08-07T03:46:29;101541.56;;;15.79;100.00
69318;BME280;56457;52.190;4.440;2023-08-07T03:47:29;101549.53;;;15.76;100.00
69318;BME280;56457;52.190;4.440;2023-08-07T03:48:30;101553.03;;;15.78;100.00
69318;BME280;56457;52.190;4.440;2023-08-07T03:49:30;101546.84;;;15.77;100.00
69318;BME280;56457;52.190;4.440;2023-08-07T03:50:31;101543.50;;;15.68;100.00
69318;BME280;56457;52.190;4.440;2023-08-07T03:51:34;101547.06;;;15.67;100.00
69318;BME280;56457;52.190;4.440;2023-08-07T03:52:35;101545.22;;;15.72;100.00
69318;BME280;56457;52.190;4.440;2023-08-07T03:53:35;101546.09;;;15.72;100.00
69318;BME280;56457;52.190;4.440;2023-08-07T03:54:35;101543.44;;;15.71;100.00
69318;BME280;56457;52.190;4.440;2023-08-07T03:55:36;101551.28;;;15.77;100.00
69318;BME280;56457;52.190;4.440;2023-08-07T03:56:36;101544.16;;;15.80;100.00
69318;BME280;56457;52.190;4.440;2023-08-07T03:57:38;101535.28;;;15.83;100.00
69318;BME280;56457;52.190;4.440;2023-08-07T03:58:38;101545.81;;;15.86;100.00
69318;BME280;56457;52.190;4.440;2023-08-07T03:59:38;101553.81;;;15.83;100.00
69318;BME280;56457;52.190;4.440;2023-08-07T04:00:39;101539.78;;;15.79;100.00
69318;BME280;56457;52.190;4.440;2023-08-07T04:01:39;101546.84;;;15.79;100.00
69318;BME280;56457;52.190;4.440;2023-08-07T04:02:39;101544.16;;;15.80;100.00
69318;BME280;56457;52.190;4.440;2023-08-07T04:03:40;101549.47;;;15.80;100.00
69318;BME280;56457;52.190;4.440;2023-08-07T04:04:40;101553.75;;;15.86;100.00
69318;BME280;56457;52.190;4.440;2023-08-07T04:05:41;101564.38;;;15.83;100.00
69318;BME280;56457;52.190;4.440;2023-08-07T04:06:41;101559.97;;;15.83;100.00
69318;BME280;56457;52.190;4.440;2023-08-07T04:07:42;101553.72;;;15.87;100.00
69318;BME280;56457;52.190;4.440;2023-08-07T04:08:44;101553.00;;;15.79;100.00
69318;BME280;56457;52.190;4.440;2023-08-07T04:09:45;101564.56;;;15.74;100.00
69318;BME280;56457;52.190;4.440;2023-08-07T04:10:45;101569.91;;;15.71;100.00
69318;BME280;56457;52.190;4.440;2023-08-07T04:11:45;101561.97;;;15.71;100.00
69318;BME280;56457;52.190;4.440;2023-08-07T04:12:46;101564.72;;;15.65;100.00
69318;BME280;56457;52.190;4.440;2023-08-07T04:13:46;101569.16;;;15.63;100.00
69318;BME280;56457;52.190;4.440;2023-08-07T04:14:46;101568.28;;;15.60;100.00
69318;BME280;56457;52.190;4.440;2023-08-07T04:15:46;101562.16;;;15.57;100.00
69318;BME280;56457;52.190;4.440;2023-08-07T04:16:47;101575.56;;;15.48;100.00
69318;BME280;56457;52.190;4.440;2023-08-07T04:17:47;101555.31;;;15.45;100.00
69318;BME280;56457;52.190;4.440;2023-08-07T04:18:47;101568.50;;;15.48;100.00
69318;BME280;56457;52.190;4.440;2023-08-07T04:19:48;101576.41;;;15.50;100.00
69318;BME280;56457;52.190;4.440;2023-08-07T04:20:55;101568.44;;;15.51;100.00
69318;BME280;56457;52.190;4.440;2023-08-07T04:21:55;101574.63;;;15.50;100.00
69318;BME280;56457;52.190;4.440;2023-08-07T04:22:55;101568.47;;;15.50;100.00
69318;BME280;56457;52.190;4.440;2023-08-07T04:23:56;101570.19;;;15.52;100.00
69318;BME280;56457;52.190;4.440;2023-08-07T04:24:56;101571.94;;;15.53;100.00
69318;BME280;56457;52.190;4.440;2023-08-07T04:25:56;101578.88;;;15.60;100.00
69318;BME280;56457;52.190;4.440;2023-08-07T04:26:57;101564.81;;;15.57;100.00
69318;BME280;56457;52.190;4.440;2023-08-07T04:27:57;101566.63;;;15.55;100.00
69318;BME280;56457;52.190;4.440;2023-08-07T04:28:57;101557.84;;;15.51;100.00
69318;BME280;56457;52.190;4.440;2023-08-07T04:29:57;101558.72;;;15.52;100.00
69318;BME280;56457;52.190;4.440;2023-08-07T04:30:58;101566.69;;;15.50;100.00
69318;BME280;56457;52.190;4.440;2023-08-07T04:31:58;101565.69;;;15.57;100.00
69318;BME280;56457;52.190;4.440;2023-08-07T04:32:58;101565.78;;;15.53;100.00
69318;BME280;56457;52.190;4.440;2023-08-07T04:33:59;101576.34;;;15.54;100.00
69318;BME280;56457;52.190;4.440;2023-08-07T04:34:59;101560.47;;;15.54;100.00
69318;BME280;56457;52.190;4.440;2023-08-07T04:35:59;101568.34;;;15.59;100.00
69318;BME280;56457;52.190;4.440;2023-08-07T04:37:00;101558.63;;;15.59;100.00
69318;BME280;56457;52.190;4.440;2023-08-07T04:38:00;101566.53;;;15.63;100.00
69318;BME280;56457;52.190;4.440;2023-08-07T04:39:02;101576.25;;;15.57;100.00
69318;BME280;56457;52.190;4.440;2023-08-07T04:40:03;101565.78;;;15.53;100.00
69318;BME280;56457;52.190;4.440;2023-08-07T04:41:04;101568.28;;;15.60;100.00
69318;BME280;56457;52.190;4.440;2023-08-07T04:42:05;101575.34;;;15.58;100.00
69318;BME280;56457;52.190;4.440;2023-08-07T04:43:05;101572.69;;;15.61;100.00
69318;BME280;56457;52.190;4.440;2023-08-07T04:44:05;101582.31;;;15.67;100.00
69318;BME280;56457;52.190;4.440;2023-08-07T04:45:06;101578.81;;;15.67;100.00
69318;BME280;56457;52.190;4.440;2023-08-07T04:46:06;101578.88;;;15.60;100.00
69318;BME280;56457;52.190;4.440;2023-08-07T04:47:06;101589.50;;;15.57;100.00
69318;BME280;56457;52.190;4.440;2023-08-07T04:48:07;101595.59;;;15.66;100.00
69318;BME280;56457;52.190;4.440;2023-08-07T04:49:08;101599.97;;;15.67;100.00
69318;BME280;56457;52.190;4.440;2023-08-07T04:50:08;101616.78;;;15.61;100.00
69318;BME280;56457;52.190;4.440;2023-08-07T04:51:08;101626.38;;;15.08;100.00
69318;BME280;56457;52.190;4.440;2023-08-07T04:52:09;101628.53;;;14.80;100.00
69318;BME280;56457;52.190;4.440;2023-08-07T04:53:09;101648.97;;;14.66;100.00
69318;BME280;56457;52.190;4.440;2023-08-07T04:54:10;101643.72;;;14.61;100.00
69318;BME280;56457;52.190;4.440;2023-08-07T04:55:10;101644.72;;;14.49;100.00
69318;BME280;56457;52.190;4.440;2023-08-07T04:56:10;101652.66;;;14.46;100.00
69318;BME280;56457;52.190;4.440;2023-08-07T04:57:10;101652.72;;;14.42;100.00
69318;BME280;56457;52.190;4.440;2023-08-07T04:58:11;101651.84;;;14.38;100.00
69318;BME280;56457;52.190;4.440;2023-08-07T04:59:11;101663.31;;;14.37;100.00
69318;BME280;56457;52.190;4.440;2023-08-07T05:00:11;101657.13;;;14.41;100.00
69318;BME280;56457;52.190;4.440;2023-08-07T05:01:12;101658.88;;;14.39;100.00
69318;BME280;56457;52.190;4.440;2023-08-07T05:02:12;101665.03;;;14.41;100.00
69318;BME280;56457;52.190;4.440;2023-08-07T05:03:12;101656.19;;;14.45;100.00
69318;BME280;56457;52.190;4.440;2023-08-07T05:04:15;101650.94;;;14.41;100.00
69318;BME280;56457;52.190;4.440;2023-08-07T05:05:15;101649.19;;;14.43;100.00
69318;BME280;56457;52.190;4.440;2023-08-07T05:06:16;101658.81;;;14.47;100.00
69318;BME280;56457;52.190;4.440;2023-08-07T05:07:16;101653.53;;;14.47;100.00
69318;BME280;56457;52.190;4.440;2023-08-07T05:08:16;101652.69;;;14.48;100.00
69318;BME280;56457;52.190;4.440;2023-08-07T05:09:17;101647.38;;;14.49;100.00
69318;BME280;56457;52.190;4.440;2023-08-07T05:10:17;101640.28;;;14.54;100.00
69318;BME280;56457;52.190;4.440;2023-08-07T05:11:17;101649.03;;;14.58;100.00
69318;BME280;56457;52.190;4.440;2023-08-07T05:12:19;101637.50;;;14.64;100.00
69318;BME280;56457;52.190;4.440;2023-08-07T05:13:20;101651.50;;;14.73;100.00
69318;BME280;56457;52.190;4.440;2023-08-07T05:14:20;101658.53;;;14.74;100.00
69318;BME280;56457;52.190;4.440;2023-08-07T05:15:23;101654.97;;;14.77;100.00